sensor_id;sensor_type;location;lat;lon;timestamp;P1;durP1;ratioP1;P2;durP2;ratioP2
22652;SDS011;11493;43.344;26.226;2023-02-15T00:01:52;41.03;;;23.98;;
22652;SDS011;11493;43.344;26.226;2023-02-15T00:04:20;37.28;;;22.13;;
22652;SDS011;11493;43.344;26.226;2023-02-15T00:06:48;36.67;;;21.27;;
22652;SDS011;11493;43.344;26.226;2023-02-15T00:09:16;35.85;;;20.92;;
22652;SDS011;11493;43.344;26.226;2023-02-15T00:11:42;35.40;;;21.10;;
22652;SDS011;11493;43.344;26.226;2023-02-15T00:14:16;37.45;;;20.02;;
22652;SDS011;11493;43.344;26.226;2023-02-15T00:16:45;35.78;;;20.40;;
22652;SDS011;11493;43.344;26.226;2023-02-15T00:19:14;35.88;;;21.67;;
22652;SDS011;11493;43.344;26.226;2023-02-15T00:21:42;39.53;;;21.45;;
22652;SDS011;11493;43.344;26.226;2023-02-15T00:24:10;40.10;;;21.25;;
22652;SDS011;11493;43.344;26.226;2023-02-15T00:26:39;40.85;;;21.48;;
22652;SDS011;11493;43.344;26.226;2023-02-15T00:29:07;37.00;;;20.33;;
22652;SDS011;11493;43.344;26.226;2023-02-15T00:31:36;61.85;;;32.13;;
22652;SDS011;11493;43.344;26.226;2023-02-15T00:34:04;48.97;;;25.60;;
22652;SDS011;11493;43.344;26.226;2023-02-15T00:36:40;48.85;;;24.50;;
22652;SDS011;11493;43.344;26.226;2023-02-15T00:39:07;47.60;;;24.65;;
22652;SDS011;11493;43.344;26.226;2023-02-15T00:41:34;41.92;;;23.52;;
22652;SDS011;11493;43.344;26.226;2023-02-15T00:44:02;38.63;;;22.17;;
22652;SDS011;11493;43.344;26.226;2023-02-15T00:46:30;40.92;;;22.52;;
22652;SDS011;11493;43.344;26.226;2023-02-15T00:48:59;37.70;;;22.27;;
22652;SDS011;11493;43.344;26.226;2023-02-15T00:51:27;45.60;;;24.77;;
22652;SDS011;11493;43.344;26.226;2023-02-15T00:53:54;44.83;;;23.98;;
22652;SDS011;11493;43.344;26.226;2023-02-15T00:56:21;49.00;;;25.95;;
22652;SDS011;11493;43.344;26.226;2023-02-15T00:58:48;48.70;;;25.75;;
22652;SDS011;11493;43.344;26.226;2023-02-15T01:01:17;46.72;;;26.00;;
22652;SDS011;11493;43.344;26.226;2023-02-15T01:03:45;51.15;;;25.17;;
22652;SDS011;11493;43.344;26.226;2023-02-15T01:06:13;45.22;;;24.40;;
22652;SDS011;11493;43.344;26.226;2023-02-15T01:08:42;56.95;;;29.65;;
22652;SDS011;11493;43.344;26.226;2023-02-15T01:11:11;62.17;;;28.98;;
22652;SDS011;11493;43.344;26.226;2023-02-15T01:13:53;52.72;;;27.25;;
22652;SDS011;11493;43.344;26.226;2023-02-15T01:16:22;47.22;;;26.63;;
22652;SDS011;11493;43.344;26.226;2023-02-15T01:18:51;51.95;;;27.20;;
22652;SDS011;11493;43.344;26.226;2023-02-15T01:21:20;52.83;;;27.05;;
22652;SDS011;11493;43.344;26.226;2023-02-15T01:23:48;49.72;;;26.88;;
22652;SDS011;11493;43.344;26.226;2023-02-15T01:26:15;49.33;;;26.92;;
22652;SDS011;11493;43.344;26.226;2023-02-15T01:28:43;49.95;;;26.83;;
22652;SDS011;11493;43.344;26.226;2023-02-15T01:31:12;50.63;;;27.02;;
22652;SDS011;11493;43.344;26.226;2023-02-15T01:33:43;55.78;;;29.13;;
22652;SDS011;11493;43.344;26.226;2023-02-15T01:36:11;52.33;;;28.45;;
22652;SDS011;11493;43.344;26.226;2023-02-15T01:38:39;55.03;;;28.58;;
22652;SDS011;11493;43.344;26.226;2023-02-15T01:41:06;53.65;;;28.48;;
22652;SDS011;11493;43.344;26.226;2023-02-15T01:43:56;58.88;;;29.85;;
22652;SDS011;11493;43.344;26.226;2023-02-15T01:46:38;64.70;;;31.77;;
22652;SDS011;11493;43.344;26.226;2023-02-15T01:49:13;59.28;;;30.42;;
22652;SDS011;11493;43.344;26.226;2023-02-15T01:51:43;61.35;;;31.35;;
22652;SDS011;11493;43.344;26.226;2023-02-15T01:57:12;64.07;;;32.17;;
22652;SDS011;11493;43.344;26.226;2023-02-15T01:59:45;64.47;;;34.08;;
22652;SDS011;11493;43.344;26.226;2023-02-15T02:02:15;68.20;;;36.03;;
22652;SDS011;11493;43.344;26.226;2023-02-15T02:04:48;61.40;;;30.58;;
22652;SDS011;11493;43.344;26.226;2023-02-15T02:07:18;67.43;;;32.50;;
22652;SDS011;11493;43.344;26.226;2023-02-15T02:09:47;64.22;;;32.78;;
22652;SDS011;11493;43.344;26.226;2023-02-15T02:12:15;56.83;;;30.75;;
22652;SDS011;11493;43.344;26.226;2023-02-15T02:14:44;59.22;;;30.30;;
22652;SDS011;11493;43.344;26.226;2023-02-15T02:18:00;58.42;;;32.38;;
22652;SDS011;11493;43.344;26.226;2023-02-15T02:45:24;60.03;;;31.58;;
22652;SDS011;11493;43.344;26.226;2023-02-15T02:48:00;58.63;;;30.92;;
22652;SDS011;11493;43.344;26.226;2023-02-15T02:50:32;63.78;;;31.30;;
22652;SDS011;11493;43.344;26.226;2023-02-15T02:52:59;66.72;;;31.10;;
22652;SDS011;11493;43.344;26.226;2023-02-15T03:01:15;59.38;;;31.25;;
22652;SDS011;11493;43.344;26.226;2023-02-15T03:03:49;61.03;;;32.50;;
22652;SDS011;11493;43.344;26.226;2023-02-15T03:06:28;65.60;;;33.13;;
22652;SDS011;11493;43.344;26.226;2023-02-15T03:09:10;60.03;;;30.88;;
22652;SDS011;11493;43.344;26.226;2023-02-15T03:12:11;66.07;;;32.85;;
22652;SDS011;11493;43.344;26.226;2023-02-15T03:14:44;67.68;;;34.33;;
22652;SDS011;11493;43.344;26.226;2023-02-15T03:17:21;69.63;;;36.13;;
22652;SDS011;11493;43.344;26.226;2023-02-15T03:19:53;66.40;;;35.05;;
22652;SDS011;11493;43.344;26.226;2023-02-15T03:22:34;76.07;;;36.95;;
22652;SDS011;11493;43.344;26.226;2023-02-15T03:25:15;69.18;;;34.88;;
22652;SDS011;11493;43.344;26.226;2023-02-15T03:27:56;65.50;;;32.38;;
22652;SDS011;11493;43.344;26.226;2023-02-15T03:30:27;72.60;;;38.40;;
22652;SDS011;11493;43.344;26.226;2023-02-15T03:32:56;71.97;;;38.15;;
22652;SDS011;11493;43.344;26.226;2023-02-15T03:35:28;64.90;;;35.45;;
22652;SDS011;11493;43.344;26.226;2023-02-15T03:38:12;68.30;;;36.83;;
22652;SDS011;11493;43.344;26.226;2023-02-15T03:40:44;67.75;;;35.55;;
22652;SDS011;11493;43.344;26.226;2023-02-15T03:43:34;64.63;;;33.78;;
22652;SDS011;11493;43.344;26.226;2023-02-15T03:49:19;92.68;;;44.03;;
22652;SDS011;11493;43.344;26.226;2023-02-15T03:51:51;70.30;;;35.20;;
22652;SDS011;11493;43.344;26.226;2023-02-15T03:54:23;80.43;;;36.90;;
22652;SDS011;11493;43.344;26.226;2023-02-15T04:00:00;66.55;;;33.30;;
22652;SDS011;11493;43.344;26.226;2023-02-15T04:02:54;60.35;;;32.45;;
22652;SDS011;11493;43.344;26.226;2023-02-15T04:05:35;62.22;;;32.55;;
22652;SDS011;11493;43.344;26.226;2023-02-15T04:08:02;60.83;;;31.27;;
22652;SDS011;11493;43.344;26.226;2023-02-15T04:10:30;64.43;;;32.78;;
22652;SDS011;11493;43.344;26.226;2023-02-15T04:13:15;64.07;;;34.65;;
22652;SDS011;11493;43.344;26.226;2023-02-15T04:15:42;74.60;;;38.50;;
22652;SDS011;11493;43.344;26.226;2023-02-15T04:19:02;71.03;;;38.20;;
22652;SDS011;11493;43.344;26.226;2023-02-15T04:21:40;63.58;;;32.40;;
22652;SDS011;11493;43.344;26.226;2023-02-15T04:24:25;59.83;;;31.13;;
22652;SDS011;11493;43.344;26.226;2023-02-15T04:27:11;64.80;;;33.25;;
22652;SDS011;11493;43.344;26.226;2023-02-15T04:29:38;62.80;;;30.98;;
22652;SDS011;11493;43.344;26.226;2023-02-15T04:32:05;60.47;;;29.75;;
22652;SDS011;11493;43.344;26.226;2023-02-15T04:34:33;56.63;;;29.30;;
22652;SDS011;11493;43.344;26.226;2023-02-15T04:37:00;54.65;;;29.30;;
22652;SDS011;11493;43.344;26.226;2023-02-15T04:39:27;60.75;;;31.58;;
22652;SDS011;11493;43.344;26.226;2023-02-15T04:41:54;59.55;;;31.05;;
22652;SDS011;11493;43.344;26.226;2023-02-15T04:44:21;58.95;;;31.02;;
22652;SDS011;11493;43.344;26.226;2023-02-15T04:46:48;60.80;;;30.25;;
22652;SDS011;11493;43.344;26.226;2023-02-15T04:49:15;57.28;;;29.63;;
22652;SDS011;11493;43.344;26.226;2023-02-15T04:51:42;67.43;;;33.28;;
22652;SDS011;11493;43.344;26.226;2023-02-15T04:54:09;67.97;;;32.92;;
22652;SDS011;11493;43.344;26.226;2023-02-15T04:56:36;72.25;;;35.55;;
22652;SDS011;11493;43.344;26.226;2023-02-15T04:59:04;73.43;;;35.80;;
22652;SDS011;11493;43.344;26.226;2023-02-15T05:01:31;78.07;;;38.88;;
22652;SDS011;11493;43.344;26.226;2023-02-15T05:03:58;77.75;;;38.80;;
22652;SDS011;11493;43.344;26.226;2023-02-15T05:06:25;68.80;;;34.83;;
22652;SDS011;11493;43.344;26.226;2023-02-15T05:08:52;64.35;;;33.95;;
22652;SDS011;11493;43.344;26.226;2023-02-15T05:11:19;65.25;;;33.20;;
22652;SDS011;11493;43.344;26.226;2023-02-15T05:13:46;72.57;;;34.83;;
22652;SDS011;11493;43.344;26.226;2023-02-15T05:16:13;78.18;;;36.67;;
22652;SDS011;11493;43.344;26.226;2023-02-15T05:18:41;96.63;;;45.85;;
22652;SDS011;11493;43.344;26.226;2023-02-15T05:21:08;84.47;;;41.75;;
22652;SDS011;11493;43.344;26.226;2023-02-15T05:23:35;88.50;;;44.55;;
22652;SDS011;11493;43.344;26.226;2023-02-15T05:26:02;97.00;;;45.65;;
22652;SDS011;11493;43.344;26.226;2023-02-15T05:28:48;83.25;;;41.97;;
22652;SDS011;11493;43.344;26.226;2023-02-15T05:31:18;85.63;;;43.95;;
22652;SDS011;11493;43.344;26.226;2023-02-15T05:33:47;88.45;;;43.00;;
22652;SDS011;11493;43.344;26.226;2023-02-15T05:36:14;89.88;;;45.08;;
22652;SDS011;11493;43.344;26.226;2023-02-15T05:38:41;75.90;;;39.58;;
22652;SDS011;11493;43.344;26.226;2023-02-15T05:41:09;75.50;;;40.13;;
22652;SDS011;11493;43.344;26.226;2023-02-15T05:43:37;72.97;;;39.55;;
22652;SDS011;11493;43.344;26.226;2023-02-15T05:46:05;84.57;;;44.50;;
22652;SDS011;11493;43.344;26.226;2023-02-15T05:48:33;77.20;;;40.47;;
22652;SDS011;11493;43.344;26.226;2023-02-15T05:51:02;76.47;;;38.70;;
22652;SDS011;11493;43.344;26.226;2023-02-15T05:53:35;82.80;;;38.08;;
22652;SDS011;11493;43.344;26.226;2023-02-15T05:56:04;82.32;;;42.15;;
22652;SDS011;11493;43.344;26.226;2023-02-15T05:58:36;81.70;;;41.00;;
22652;SDS011;11493;43.344;26.226;2023-02-15T06:01:09;83.28;;;41.47;;
22652;SDS011;11493;43.344;26.226;2023-02-15T06:03:37;93.72;;;44.97;;
22652;SDS011;11493;43.344;26.226;2023-02-15T06:06:05;102.30;;;51.88;;
22652;SDS011;11493;43.344;26.226;2023-02-15T06:08:33;98.70;;;48.67;;
22652;SDS011;11493;43.344;26.226;2023-02-15T06:11:01;117.82;;;56.83;;
22652;SDS011;11493;43.344;26.226;2023-02-15T06:13:29;96.85;;;49.70;;
22652;SDS011;11493;43.344;26.226;2023-02-15T06:15:57;107.72;;;51.20;;
22652;SDS011;11493;43.344;26.226;2023-02-15T06:18:24;107.43;;;52.80;;
22652;SDS011;11493;43.344;26.226;2023-02-15T06:20:52;115.70;;;56.00;;
22652;SDS011;11493;43.344;26.226;2023-02-15T06:23:20;121.72;;;60.67;;
22652;SDS011;11493;43.344;26.226;2023-02-15T06:25:47;126.60;;;62.08;;
22652;SDS011;11493;43.344;26.226;2023-02-15T06:28:14;137.52;;;69.68;;
22652;SDS011;11493;43.344;26.226;2023-02-15T06:30:42;136.60;;;69.47;;
22652;SDS011;11493;43.344;26.226;2023-02-15T06:33:09;159.88;;;81.55;;
22652;SDS011;11493;43.344;26.226;2023-02-15T06:35:36;167.73;;;81.97;;
22652;SDS011;11493;43.344;26.226;2023-02-15T06:38:03;160.98;;;80.38;;
22652;SDS011;11493;43.344;26.226;2023-02-15T06:40:30;159.25;;;79.85;;
22652;SDS011;11493;43.344;26.226;2023-02-15T06:42:57;160.07;;;78.35;;
22652;SDS011;11493;43.344;26.226;2023-02-15T06:45:24;159.43;;;79.75;;
22652;SDS011;11493;43.344;26.226;2023-02-15T06:47:51;156.63;;;77.75;;
22652;SDS011;11493;43.344;26.226;2023-02-15T06:50:18;141.38;;;73.43;;
22652;SDS011;11493;43.344;26.226;2023-02-15T06:52:45;158.27;;;76.28;;
22652;SDS011;11493;43.344;26.226;2023-02-15T06:55:12;138.13;;;73.22;;
22652;SDS011;11493;43.344;26.226;2023-02-15T06:57:42;141.90;;;73.90;;
22652;SDS011;11493;43.344;26.226;2023-02-15T07:00:08;135.27;;;69.07;;
22652;SDS011;11493;43.344;26.226;2023-02-15T07:02:36;146.40;;;74.55;;
22652;SDS011;11493;43.344;26.226;2023-02-15T07:05:03;125.75;;;69.25;;
22652;SDS011;11493;43.344;26.226;2023-02-15T07:07:32;109.13;;;55.95;;
22652;SDS011;11493;43.344;26.226;2023-02-15T07:09:59;112.90;;;58.42;;
22652;SDS011;11493;43.344;26.226;2023-02-15T07:12:26;103.57;;;54.90;;
22652;SDS011;11493;43.344;26.226;2023-02-15T07:15:16;97.57;;;48.47;;
22652;SDS011;11493;43.344;26.226;2023-02-15T07:17:47;67.85;;;37.70;;
22652;SDS011;11493;43.344;26.226;2023-02-15T07:20:19;73.65;;;40.47;;
22652;SDS011;11493;43.344;26.226;2023-02-15T07:22:48;85.35;;;40.55;;
22652;SDS011;11493;43.344;26.226;2023-02-15T07:25:15;77.28;;;40.80;;
22652;SDS011;11493;43.344;26.226;2023-02-15T07:27:43;77.13;;;39.92;;
22652;SDS011;11493;43.344;26.226;2023-02-15T07:30:12;80.13;;;42.38;;
22652;SDS011;11493;43.344;26.226;2023-02-15T07:32:42;65.50;;;35.30;;
22652;SDS011;11493;43.344;26.226;2023-02-15T07:35:31;65.35;;;29.02;;
22652;SDS011;11493;43.344;26.226;2023-02-15T07:37:58;45.67;;;24.48;;
22652;SDS011;11493;43.344;26.226;2023-02-15T07:40:25;38.78;;;23.10;;
22652;SDS011;11493;43.344;26.226;2023-02-15T07:42:52;43.47;;;23.75;;
22652;SDS011;11493;43.344;26.226;2023-02-15T07:45:21;41.75;;;23.48;;
22652;SDS011;11493;43.344;26.226;2023-02-15T07:47:48;38.20;;;23.23;;
22652;SDS011;11493;43.344;26.226;2023-02-15T07:50:15;39.45;;;22.60;;
22652;SDS011;11493;43.344;26.226;2023-02-15T07:52:43;33.95;;;21.23;;
22652;SDS011;11493;43.344;26.226;2023-02-15T07:55:11;33.63;;;20.95;;
22652;SDS011;11493;43.344;26.226;2023-02-15T07:57:43;34.85;;;21.83;;
22652;SDS011;11493;43.344;26.226;2023-02-15T08:00:13;33.42;;;20.73;;
22652;SDS011;11493;43.344;26.226;2023-02-15T08:02:42;39.88;;;23.15;;
22652;SDS011;11493;43.344;26.226;2023-02-15T08:05:36;39.58;;;22.17;;
22652;SDS011;11493;43.344;26.226;2023-02-15T08:08:04;37.45;;;22.45;;
22652;SDS011;11493;43.344;26.226;2023-02-15T08:10:32;33.80;;;21.38;;
22652;SDS011;11493;43.344;26.226;2023-02-15T08:13:18;36.05;;;20.25;;
22652;SDS011;11493;43.344;26.226;2023-02-15T08:15:48;41.95;;;23.23;;
22652;SDS011;11493;43.344;26.226;2023-02-15T08:18:16;34.83;;;22.08;;
22652;SDS011;11493;43.344;26.226;2023-02-15T08:20:48;36.75;;;21.08;;
22652;SDS011;11493;43.344;26.226;2023-02-15T08:23:16;37.63;;;22.17;;
22652;SDS011;11493;43.344;26.226;2023-02-15T08:25:43;46.47;;;25.08;;
22652;SDS011;11493;43.344;26.226;2023-02-15T08:28:10;34.40;;;21.38;;
22652;SDS011;11493;43.344;26.226;2023-02-15T08:30:37;36.95;;;21.80;;
22652;SDS011;11493;43.344;26.226;2023-02-15T08:33:04;33.88;;;20.48;;
22652;SDS011;11493;43.344;26.226;2023-02-15T08:35:31;33.75;;;20.38;;
22652;SDS011;11493;43.344;26.226;2023-02-15T08:37:58;30.92;;;20.63;;
22652;SDS011;11493;43.344;26.226;2023-02-15T08:40:24;34.08;;;20.83;;
22652;SDS011;11493;43.344;26.226;2023-02-15T08:42:51;36.13;;;21.33;;
22652;SDS011;11493;43.344;26.226;2023-02-15T08:45:18;31.02;;;19.25;;
22652;SDS011;11493;43.344;26.226;2023-02-15T08:47:46;36.40;;;19.85;;
22652;SDS011;11493;43.344;26.226;2023-02-15T08:50:12;32.40;;;20.25;;
22652;SDS011;11493;43.344;26.226;2023-02-15T08:52:40;29.80;;;18.27;;
22652;SDS011;11493;43.344;26.226;2023-02-15T08:55:07;34.70;;;21.13;;
22652;SDS011;11493;43.344;26.226;2023-02-15T08:57:35;28.67;;;19.17;;
22652;SDS011;11493;43.344;26.226;2023-02-15T09:00:02;39.33;;;21.55;;
22652;SDS011;11493;43.344;26.226;2023-02-15T09:02:31;29.30;;;18.90;;
22652;SDS011;11493;43.344;26.226;2023-02-15T09:04:59;32.13;;;19.02;;
22652;SDS011;11493;43.344;26.226;2023-02-15T09:07:25;31.75;;;17.83;;
22652;SDS011;11493;43.344;26.226;2023-02-15T09:09:52;31.13;;;18.35;;
22652;SDS011;11493;43.344;26.226;2023-02-15T09:12:19;27.65;;;17.90;;
22652;SDS011;11493;43.344;26.226;2023-02-15T09:14:46;31.65;;;19.58;;
22652;SDS011;11493;43.344;26.226;2023-02-15T09:17:13;29.63;;;17.92;;
22652;SDS011;11493;43.344;26.226;2023-02-15T09:19:41;32.55;;;18.02;;
22652;SDS011;11493;43.344;26.226;2023-02-15T09:22:09;33.67;;;20.02;;
22652;SDS011;11493;43.344;26.226;2023-02-15T09:24:35;30.08;;;17.90;;
22652;SDS011;11493;43.344;26.226;2023-02-15T09:27:03;33.60;;;19.88;;
22652;SDS011;11493;43.344;26.226;2023-02-15T09:29:29;30.45;;;17.63;;
22652;SDS011;11493;43.344;26.226;2023-02-15T09:31:56;33.30;;;19.95;;
22652;SDS011;11493;43.344;26.226;2023-02-15T09:34:23;32.85;;;18.95;;
22652;SDS011;11493;43.344;26.226;2023-02-15T09:36:50;49.30;;;25.05;;
22652;SDS011;11493;43.344;26.226;2023-02-15T09:47:48;25.05;;;16.40;;
22652;SDS011;11493;43.344;26.226;2023-02-15T09:56:21;30.88;;;17.75;;
22652;SDS011;11493;43.344;26.226;2023-02-15T10:04:58;30.92;;;18.38;;
22652;SDS011;11493;43.344;26.226;2023-02-15T10:08:05;33.63;;;20.05;;
22652;SDS011;11493;43.344;26.226;2023-02-15T10:26:31;36.58;;;21.35;;
22652;SDS011;11493;43.344;26.226;2023-02-15T10:29:02;34.88;;;20.92;;
22652;SDS011;11493;43.344;26.226;2023-02-15T10:31:50;39.65;;;22.48;;
22652;SDS011;11493;43.344;26.226;2023-02-15T10:39:52;27.00;;;17.67;;
22652;SDS011;11493;43.344;26.226;2023-02-15T10:56:22;31.23;;;16.55;;
22652;SDS011;11493;43.344;26.226;2023-02-15T10:59:00;22.30;;;14.38;;
22652;SDS011;11493;43.344;26.226;2023-02-15T11:07:12;23.95;;;15.05;;
22652;SDS011;11493;43.344;26.226;2023-02-15T11:09:56;25.40;;;15.48;;
22652;SDS011;11493;43.344;26.226;2023-02-15T11:12:43;22.73;;;14.82;;
22652;SDS011;11493;43.344;26.226;2023-02-15T11:15:19;29.88;;;15.43;;
22652;SDS011;11493;43.344;26.226;2023-02-15T11:20:49;27.75;;;16.73;;
22652;SDS011;11493;43.344;26.226;2023-02-15T11:23:23;23.15;;;14.88;;
22652;SDS011;11493;43.344;26.226;2023-02-15T11:25:56;21.63;;;15.55;;
22652;SDS011;11493;43.344;26.226;2023-02-15T11:28:31;22.30;;;15.00;;
22652;SDS011;11493;43.344;26.226;2023-02-15T11:31:11;19.98;;;13.30;;
22652;SDS011;11493;43.344;26.226;2023-02-15T11:33:43;19.63;;;13.20;;
22652;SDS011;11493;43.344;26.226;2023-02-15T11:36:18;25.73;;;14.30;;
22652;SDS011;11493;43.344;26.226;2023-02-15T11:38:50;23.55;;;14.75;;
22652;SDS011;11493;43.344;26.226;2023-02-15T11:41:28;22.58;;;13.73;;
22652;SDS011;11493;43.344;26.226;2023-02-15T11:46:35;26.67;;;15.32;;
22652;SDS011;11493;43.344;26.226;2023-02-15T11:49:46;23.48;;;14.55;;
22652;SDS011;11493;43.344;26.226;2023-02-15T11:52:01;17.80;;;12.60;;
22652;SDS011;11493;43.344;26.226;2023-02-15T11:54:33;22.08;;;14.25;;
22652;SDS011;11493;43.344;26.226;2023-02-15T11:57:11;22.83;;;14.73;;
22652;SDS011;11493;43.344;26.226;2023-02-15T11:59:44;25.88;;;14.65;;
22652;SDS011;11493;43.344;26.226;2023-02-15T12:02:21;30.98;;;20.45;;
22652;SDS011;11493;43.344;26.226;2023-02-15T12:05:02;18.35;;;13.73;;
22652;SDS011;11493;43.344;26.226;2023-02-15T12:07:37;26.77;;;16.00;;
22652;SDS011;11493;43.344;26.226;2023-02-15T12:10:27;20.52;;;13.90;;
22652;SDS011;11493;43.344;26.226;2023-02-15T12:15:51;20.02;;;12.55;;
22652;SDS011;11493;43.344;26.226;2023-02-15T12:18:32;24.80;;;13.80;;
22652;SDS011;11493;43.344;26.226;2023-02-15T12:23:58;21.83;;;14.38;;
22652;SDS011;11493;43.344;26.226;2023-02-15T12:26:32;32.38;;;16.73;;
22652;SDS011;11493;43.344;26.226;2023-02-15T12:29:06;30.83;;;18.20;;
22652;SDS011;11493;43.344;26.226;2023-02-15T12:31:43;29.10;;;17.33;;
22652;SDS011;11493;43.344;26.226;2023-02-15T12:36:53;27.83;;;14.50;;
22652;SDS011;11493;43.344;26.226;2023-02-15T12:39:29;19.38;;;13.38;;
22652;SDS011;11493;43.344;26.226;2023-02-15T12:44:34;24.00;;;14.77;;
22652;SDS011;11493;43.344;26.226;2023-02-15T12:49:34;16.88;;;11.75;;
22652;SDS011;11493;43.344;26.226;2023-02-15T12:52:05;20.15;;;12.77;;
22652;SDS011;11493;43.344;26.226;2023-02-15T12:54:49;25.48;;;16.98;;
22652;SDS011;11493;43.344;26.226;2023-02-15T12:57:33;29.50;;;15.85;;
22652;SDS011;11493;43.344;26.226;2023-02-15T13:00:02;24.15;;;13.57;;
22652;SDS011;11493;43.344;26.226;2023-02-15T13:02:43;18.77;;;13.05;;
22652;SDS011;11493;43.344;26.226;2023-02-15T13:05:56;24.70;;;14.13;;
22652;SDS011;11493;43.344;26.226;2023-02-15T13:10:56;24.10;;;14.90;;
22652;SDS011;11493;43.344;26.226;2023-02-15T13:16:45;17.75;;;10.40;;
22652;SDS011;11493;43.344;26.226;2023-02-15T13:19:18;23.30;;;11.80;;
22652;SDS011;11493;43.344;26.226;2023-02-15T13:21:53;16.33;;;10.85;;
22652;SDS011;11493;43.344;26.226;2023-02-15T13:24:24;16.08;;;11.32;;
22652;SDS011;11493;43.344;26.226;2023-02-15T13:26:58;17.13;;;11.35;;
22652;SDS011;11493;43.344;26.226;2023-02-15T13:29:41;18.15;;;11.85;;
22652;SDS011;11493;43.344;26.226;2023-02-15T13:35:00;17.65;;;10.63;;
22652;SDS011;11493;43.344;26.226;2023-02-15T13:37:36;19.10;;;11.25;;
22652;SDS011;11493;43.344;26.226;2023-02-15T13:40:13;20.23;;;12.45;;
22652;SDS011;11493;43.344;26.226;2023-02-15T13:42:49;17.70;;;12.52;;
22652;SDS011;11493;43.344;26.226;2023-02-15T13:48:41;23.23;;;14.07;;
22652;SDS011;11493;43.344;26.226;2023-02-15T13:51:23;17.75;;;11.15;;
22652;SDS011;11493;43.344;26.226;2023-02-15T14:15:03;21.58;;;12.98;;
22652;SDS011;11493;43.344;26.226;2023-02-15T14:35:59;31.77;;;17.15;;
22652;SDS011;11493;43.344;26.226;2023-02-15T14:41:59;29.30;;;15.13;;
22652;SDS011;11493;43.344;26.226;2023-02-15T14:44:52;27.40;;;14.90;;
22652;SDS011;11493;43.344;26.226;2023-02-15T14:53:16;20.63;;;13.90;;
22652;SDS011;11493;43.344;26.226;2023-02-15T14:56:04;23.58;;;16.67;;
22652;SDS011;11493;43.344;26.226;2023-02-15T14:58:34;29.92;;;16.63;;
22652;SDS011;11493;43.344;26.226;2023-02-15T15:01:05;30.83;;;17.02;;
22652;SDS011;11493;43.344;26.226;2023-02-15T15:03:50;20.23;;;13.52;;
22652;SDS011;11493;43.344;26.226;2023-02-15T15:06:24;22.95;;;14.93;;
22652;SDS011;11493;43.344;26.226;2023-02-15T15:09:00;22.35;;;15.40;;
22652;SDS011;11493;43.344;26.226;2023-02-15T15:11:50;28.55;;;17.85;;
22652;SDS011;11493;43.344;26.226;2023-02-15T15:17:01;30.88;;;17.25;;
22652;SDS011;11493;43.344;26.226;2023-02-15T15:22:27;45.42;;;22.08;;
22652;SDS011;11493;43.344;26.226;2023-02-15T15:25:03;37.88;;;19.77;;
22652;SDS011;11493;43.344;26.226;2023-02-15T15:27:47;35.65;;;19.73;;
22652;SDS011;11493;43.344;26.226;2023-02-15T15:33:46;40.03;;;21.05;;
22652;SDS011;11493;43.344;26.226;2023-02-15T15:42:29;80.40;;;38.42;;
22652;SDS011;11493;43.344;26.226;2023-02-15T15:48:19;46.80;;;27.77;;
22652;SDS011;11493;43.344;26.226;2023-02-15T15:50:40;110.65;;;44.97;;
22652;SDS011;11493;43.344;26.226;2023-02-15T15:53:16;75.45;;;33.63;;
22652;SDS011;11493;43.344;26.226;2023-02-15T15:55:48;60.20;;;32.25;;
22652;SDS011;11493;43.344;26.226;2023-02-15T15:58:21;67.18;;;34.65;;
22652;SDS011;11493;43.344;26.226;2023-02-15T16:00:54;83.53;;;40.33;;
22652;SDS011;11493;43.344;26.226;2023-02-15T16:03:26;106.05;;;49.38;;
22652;SDS011;11493;43.344;26.226;2023-02-15T16:05:54;106.80;;;57.00;;
22652;SDS011;11493;43.344;26.226;2023-02-15T16:08:31;120.30;;;66.88;;
22652;SDS011;11493;43.344;26.226;2023-02-15T16:11:01;93.78;;;52.83;;
22652;SDS011;11493;43.344;26.226;2023-02-15T16:13:39;92.55;;;50.85;;
22652;SDS011;11493;43.344;26.226;2023-02-15T16:16:07;125.90;;;61.05;;
22652;SDS011;11493;43.344;26.226;2023-02-15T16:18:36;115.40;;;57.47;;
22652;SDS011;11493;43.344;26.226;2023-02-15T16:21:13;103.43;;;50.10;;
22652;SDS011;11493;43.344;26.226;2023-02-15T16:26:48;67.88;;;37.50;;
22652;SDS011;11493;43.344;26.226;2023-02-15T16:29:31;82.75;;;43.17;;
22652;SDS011;11493;43.344;26.226;2023-02-15T16:32:03;90.70;;;48.22;;
22652;SDS011;11493;43.344;26.226;2023-02-15T16:34:33;91.20;;;51.25;;
22652;SDS011;11493;43.344;26.226;2023-02-15T16:37:16;88.55;;;47.05;;
22652;SDS011;11493;43.344;26.226;2023-02-15T16:39:45;83.00;;;44.53;;
22652;SDS011;11493;43.344;26.226;2023-02-15T16:42:14;79.53;;;44.25;;
22652;SDS011;11493;43.344;26.226;2023-02-15T16:44:48;81.40;;;43.03;;
22652;SDS011;11493;43.344;26.226;2023-02-15T16:47:20;65.88;;;38.92;;
22652;SDS011;11493;43.344;26.226;2023-02-15T16:49:54;59.03;;;35.50;;
22652;SDS011;11493;43.344;26.226;2023-02-15T16:52:26;76.18;;;40.25;;
22652;SDS011;11493;43.344;26.226;2023-02-15T16:54:55;75.43;;;43.17;;
22652;SDS011;11493;43.344;26.226;2023-02-15T16:57:28;92.03;;;50.33;;
22652;SDS011;11493;43.344;26.226;2023-02-15T17:00:06;89.18;;;48.05;;
22652;SDS011;11493;43.344;26.226;2023-02-15T17:02:52;92.88;;;50.17;;
22652;SDS011;11493;43.344;26.226;2023-02-15T17:05:22;98.43;;;50.58;;
22652;SDS011;11493;43.344;26.226;2023-02-15T17:07:50;88.28;;;50.67;;
22652;SDS011;11493;43.344;26.226;2023-02-15T17:10:35;87.80;;;46.00;;
22652;SDS011;11493;43.344;26.226;2023-02-15T17:13:15;94.63;;;51.55;;
22652;SDS011;11493;43.344;26.226;2023-02-15T17:15:44;98.85;;;51.97;;
22652;SDS011;11493;43.344;26.226;2023-02-15T17:18:38;107.88;;;55.63;;
22652;SDS011;11493;43.344;26.226;2023-02-15T17:21:11;130.95;;;80.53;;
22652;SDS011;11493;43.344;26.226;2023-02-15T17:23:44;163.32;;;86.63;;
22652;SDS011;11493;43.344;26.226;2023-02-15T17:26:23;200.65;;;98.68;;
22652;SDS011;11493;43.344;26.226;2023-02-15T17:29:00;113.63;;;62.22;;
22652;SDS011;11493;43.344;26.226;2023-02-15T17:31:37;91.57;;;51.15;;
22652;SDS011;11493;43.344;26.226;2023-02-15T17:34:05;75.63;;;43.17;;
22652;SDS011;11493;43.344;26.226;2023-02-15T17:36:32;92.95;;;50.15;;
22652;SDS011;11493;43.344;26.226;2023-02-15T17:41:33;220.48;;;100.97;;
22652;SDS011;11493;43.344;26.226;2023-02-15T17:44:01;253.57;;;112.55;;
22652;SDS011;11493;43.344;26.226;2023-02-15T17:46:32;320.77;;;136.82;;
22652;SDS011;11493;43.344;26.226;2023-02-15T17:49:02;203.05;;;96.35;;
22652;SDS011;11493;43.344;26.226;2023-02-15T17:51:30;122.30;;;64.53;;
22652;SDS011;11493;43.344;26.226;2023-02-15T17:53:58;67.32;;;39.45;;
22652;SDS011;11493;43.344;26.226;2023-02-15T17:56:44;100.43;;;49.13;;
22652;SDS011;11493;43.344;26.226;2023-02-15T17:59:11;132.68;;;64.18;;
22652;SDS011;11493;43.344;26.226;2023-02-15T18:01:44;132.35;;;60.92;;